Time;durP1;ratioP1;P1;durP2;ratioP2;P2;SDS_P1;SDS_P2;PMS_P1;PMS_P2;Temp;Humidity;BMP_temperature;BMP_pressure;BME280_temperature;BME280_humidity;BME280_pressure;Samples;Min_cycle;Max_cycle;Signal;HPM_P1;HPM_P2
2023/04/20 00:00:10;;;;;;;16.77;2.62;;;;;;;11.17;52.87;100133.54;1653644;86;21017;-56
2023/04/20 00:02:42;;;;;;;18.40;2.90;;;;;;;11.18;52.79;100135.23;1653762;86;21447;-57
2023/04/20 00:05:11;;;;;;;18.17;2.62;;;;;;;11.17;52.62;100132.17;1654847;86;21059;-58
2023/04/20 00:07:41;;;;;;;17.07;3.00;;;;;;;11.16;52.44;100131.00;1655077;85;21094;-57
2023/04/20 00:10:11;;;;;;;14.80;2.85;;;;;;;11.16;52.72;100129.63;1656319;86;21022;-57
2023/04/20 00:12:41;;;;;;;16.37;2.87;;;;;;;11.15;52.82;100131.53;1656295;85;21275;-56
2023/04/20 00:15:11;;;;;;;22.90;2.70;;;;;;;11.17;52.85;100132.69;1651168;85;21031;-57
2023/04/20 00:17:40;;;;;;;11.93;2.33;;;;;;;11.16;52.69;100129.63;1624699;88;21103;-56
2023/04/20 00:20:11;;;;;;;12.82;2.30;;;;;;;11.17;52.76;100126.68;1683676;85;21031;-56
2023/04/20 00:22:40;;;;;;;19.42;2.90;;;;;;;11.18;52.78;100127.00;1684557;85;21548;-56
2023/04/20 00:25:09;;;;;;;14.43;2.40;;;;;;;11.18;52.80;100120.67;1683375;84;21059;-57
2023/04/20 00:27:38;;;;;;;13.00;1.90;;;;;;;11.18;52.50;100127.00;1692523;84;21064;-57
2023/04/20 00:30:09;;;;;;;15.53;3.08;;;;;;;11.17;52.46;100119.83;1686290;84;21051;-58
2023/04/20 00:32:39;;;;;;;11.25;2.45;;;;;;;11.17;52.77;100125.84;1692509;84;21077;-58
2023/04/20 00:35:09;;;;;;;13.20;2.50;;;;;;;11.15;52.62;100118.34;1692685;84;21044;-57
2023/04/20 00:37:38;;;;;;;15.95;2.33;;;;;;;11.16;52.88;100114.55;1691962;84;21035;-58
2023/04/20 00:40:08;;;;;;;19.07;2.85;;;;;;;11.15;52.64;100110.12;1680623;84;21035;-57
2023/04/20 00:42:39;;;;;;;13.93;2.52;;;;;;;11.12;52.88;100107.27;1679356;85;21033;-58
2023/04/20 00:45:09;;;;;;;15.45;3.20;;;;;;;11.12;52.80;100108.64;1683006;85;21035;-58
2023/04/20 00:47:38;;;;;;;19.87;3.10;;;;;;;11.12;52.68;100100.41;1692514;82;21515;-57
2023/04/20 00:50:09;;;;;;;20.05;2.47;;;;;;;11.11;52.93;100102.31;1700705;84;21052;-58
2023/04/20 00:52:40;;;;;;;17.50;2.50;;;;;;;11.10;52.88;100095.14;1700777;84;21048;-58
2023/04/20 00:55:09;;;;;;;14.00;2.70;;;;;;;11.10;52.82;100092.40;1700545;84;21036;-57
2023/04/20 00:57:39;;;;;;;18.80;2.62;;;;;;;11.12;52.98;100096.30;1700568;84;21055;-57
2023/04/20 01:00:15;;;;;;;14.55;3.08;;;;;;;11.12;52.90;100089.45;1700982;84;21024;-56
2023/04/20 01:02:45;;;;;;;26.93;6.53;;;;;;;11.08;52.75;100088.17;1700582;84;21064;-57
2023/04/20 01:05:15;;;;;;;14.33;2.98;;;;;;;11.07;53.01;100081.84;1700732;84;21112;-58
2023/04/20 01:07:44;;;;;;;19.77;3.00;;;;;;;11.05;53.27;100079.84;1684891;84;21499;-57
2023/04/20 01:10:15;;;;;;;18.20;2.45;;;;;;;11.04;53.53;100077.28;1700954;84;21002;-58
2023/04/20 01:12:44;;;;;;;18.50;2.47;;;;;;;11.03;53.79;100076.43;1700943;84;21032;-57
2023/04/20 01:15:14;;;;;;;14.15;2.60;;;;;;;11.01;54.17;100075.80;1700720;84;21039;-58
2023/04/20 01:17:42;;;;;;;13.22;2.60;;;;;;;11.02;54.21;100070.63;1701032;84;21059;-58
2023/04/20 01:20:12;;;;;;;19.95;2.80;;;;;;;11.02;54.45;100072.53;1700926;84;21064;-57
2023/04/20 01:22:50;;;;;;;15.38;2.58;;;;;;;11.01;54.17;100073.05;1700945;83;21060;-57
2023/04/20 01:25:19;;;;;;;13.32;2.30;;;;;;;10.99;54.33;100077.91;1700664;84;21096;-57
2023/04/20 01:27:48;;;;;;;19.65;2.98;;;;;;;10.98;54.49;100069.89;1700777;84;21032;-57
2023/04/20 01:30:16;;;;;;;19.30;2.65;;;;;;;10.98;54.60;100072.10;1700875;84;21538;-57
2023/04/20 01:32:45;;;;;;;22.73;2.70;;;;;;;10.97;54.55;100074.52;1700850;84;21040;-58
2023/04/20 01:35:15;;;;;;;16.37;2.58;;;;;;;10.97;54.49;100078.64;1700889;84;21084;-56
2023/04/20 01:37:45;;;;;;;10.63;2.58;;;;;;;10.97;54.63;100069.04;1700707;84;21485;-56
2023/04/20 01:40:15;;;;;;;15.08;2.47;;;;;;;10.98;54.67;100072.62;1700815;84;21092;-57
2023/04/20 01:42:44;;;;;;;14.38;2.37;;;;;;;10.97;54.81;100069.56;1700715;84;21091;-57
2023/04/20 01:45:13;;;;;;;15.00;2.62;;;;;;;10.96;54.88;100070.63;1700740;84;21087;-58
2023/04/20 01:47:42;;;;;;;18.27;2.45;;;;;;;10.96;54.98;100067.36;1700571;84;21475;-58
2023/04/20 01:50:11;;;;;;;11.95;2.17;;;;;;;10.96;55.06;100064.61;1700745;84;21088;-57
2023/04/20 01:52:40;;;;;;;12.75;2.40;;;;;;;10.97;55.14;100064.09;1700596;83;21071;-57
2023/04/20 01:55:10;;;;;;;16.10;2.80;;;;;;;10.96;55.14;100061.03;1700986;84;21028;-58
2023/04/20 01:57:39;;;;;;;13.00;2.65;;;;;;;10.96;55.29;100059.66;1700711;84;21035;-57
2023/04/20 02:00:10;;;;;;;13.72;2.77;;;;;;;10.94;55.54;100057.66;1700845;84;21024;-59
2023/04/20 02:02:42;;;;;;;15.83;2.87;;;;;;;10.94;55.78;100054.91;1696521;84;21494;-59
2023/04/20 02:05:12;;;;;;;14.28;2.80;;;;;;;10.94;55.83;100052.17;1696564;84;21020;-57
2023/04/20 02:07:41;;;;;;;18.15;2.52;;;;;;;10.94;55.94;100050.80;1699035;84;21511;-58
2023/04/20 02:10:10;;;;;;;11.08;2.85;;;;;;;10.94;56.08;100048.90;1700789;84;21055;-60
2023/04/20 02:12:40;;;;;;;17.27;2.90;;;;;;;10.93;56.11;100050.48;1700832;84;21032;-57
2023/04/20 02:15:10;;;;;;;14.35;2.55;;;;;;;10.92;56.26;100052.91;1700752;84;21060;-57
2023/04/20 02:17:42;;;;;;;14.55;2.60;;;;;;;10.90;56.35;100049.00;1700681;84;21662;-57
2023/04/20 02:20:13;;;;;;;11.20;2.67;;;;;;;10.88;56.46;100048.89;1701002;83;21099;-57
2023/04/20 02:22:42;;;;;;;13.22;2.50;;;;;;;10.88;56.54;100043.41;1700861;84;21063;-57
2023/04/20 02:25:11;;;;;;;14.65;2.62;;;;;;;10.88;56.57;100042.88;1700956;84;21095;-57
2023/04/20 02:27:40;;;;;;;20.32;2.75;;;;;;;10.87;56.66;100042.56;1700771;84;20992;-56
2023/04/20 02:30:10;;;;;;;16.25;3.10;;;;;;;10.86;56.75;100043.62;1700740;84;21039;-57
2023/04/20 02:32:41;;;;;;;17.25;3.42;;;;;;;10.85;56.71;100046.56;1700895;84;21032;-56
2023/04/20 02:35:11;;;;;;;12.47;3.00;;;;;;;10.80;56.77;100035.70;1700781;83;21032;-57
2023/04/20 02:37:41;;;;;;;16.55;3.02;;;;;;;10.79;56.89;100042.23;1700898;84;21067;-58
2023/04/20 02:40:12;;;;;;;15.58;2.80;;;;;;;10.81;56.92;100033.80;1700631;84;21036;-56
2023/04/20 02:42:41;;;;;;;12.23;3.05;;;;;;;10.80;56.87;100034.86;1700655;84;21052;-57
2023/04/20 02:45:11;;;;;;;23.73;3.25;;;;;;;10.79;56.90;100035.91;1700986;84;21034;-56
2023/04/20 02:47:41;;;;;;;13.32;2.75;;;;;;;10.76;56.97;100024.00;1695956;83;21063;-58
2023/04/20 02:50:10;;;;;;;15.30;2.85;;;;;;;10.76;56.93;100031.69;1683334;85;21032;-57
2023/04/20 02:52:41;;;;;;;16.77;2.50;;;;;;;10.74;56.87;100022.83;1681096;84;21735;-57
2023/04/20 02:55:10;;;;;;;17.65;2.80;;;;;;;10.74;56.88;100022.83;1670214;85;21087;-58
2023/04/20 02:57:41;;;;;;;17.48;2.83;;;;;;;10.73;56.80;100026.63;1682994;85;21503;-58
2023/04/20 03:00:12;;;;;;;11.65;2.30;;;;;;;10.73;56.72;100023.05;1685843;85;21460;-58
2023/04/20 03:02:47;;;;;;;15.35;3.45;;;;;;;10.75;56.65;100022.31;1684518;84;21095;-57
2023/04/20 03:05:17;;;;;;;13.90;2.52;;;;;;;10.73;56.55;100018.41;1693200;84;21082;-58
2023/04/20 03:07:47;;;;;;;9.70;2.27;;;;;;;10.73;56.61;100024.41;1680144;84;21059;-57
2023/04/20 03:10:15;;;;;;;19.42;2.40;;;;;;;10.73;56.55;100021.14;1681223;85;21047;-57
2023/04/20 03:12:47;;;;;;;14.83;2.80;;;;;;;10.74;56.40;100022.83;1675072;85;21087;-57
2023/04/20 03:15:30;;;;;;;14.35;2.98;;;;;;;10.74;56.36;100019.25;1682400;84;21092;-58
2023/04/20 03:18:01;;;;;;;17.10;2.40;;;;;;;10.74;56.30;100021.98;1683725;84;21032;-57
2023/04/20 03:20:31;;;;;;;15.98;2.80;;;;;;;10.74;55.94;100025.58;1680403;84;21072;-57
2023/04/20 03:23:01;;;;;;;11.55;2.30;;;;;;;10.74;55.90;100028.31;1683848;85;21312;-57
2023/04/20 03:25:32;;;;;;;8.58;2.45;;;;;;;10.73;55.62;100032.63;1682065;84;21059;-57
2023/04/20 03:28:04;;;;;;;15.90;2.40;;;;;;;10.71;55.81;100024.62;1689845;84;21075;-57
2023/04/20 03:30:35;;;;;;;31.15;3.27;;;;;;;10.71;55.77;100020.51;1680401;85;21028;-56
2023/04/20 03:33:06;;;;;;;17.32;2.12;;;;;;;10.71;55.64;100016.92;1681298;85;21021;-58
2023/04/20 03:35:38;;;;;;;13.45;2.87;;;;;;;10.69;55.79;100023.14;1680067;84;21526;-57
2023/04/20 03:38:08;;;;;;;10.03;2.08;;;;;;;10.69;55.75;100021.77;1680186;85;21035;-57
2023/04/20 03:40:37;;;;;;;10.75;2.20;;;;;;;10.70;55.70;100022.09;1680338;85;21060;-59
2023/04/20 03:43:06;;;;;;;15.58;2.87;;;;;;;10.70;55.51;100017.98;1684233;84;21083;-58
2023/04/20 03:45:35;;;;;;;13.32;2.33;;;;;;;10.71;55.53;100021.88;1690572;84;21048;-56
2023/04/20 03:48:04;;;;;;;30.25;3.20;;;;;;;10.71;55.46;100019.14;1699704;83;21092;-56
2023/04/20 03:50:33;;;;;;;16.75;2.80;;;;;;;10.72;55.25;100019.98;1715939;84;21483;-57
2023/04/20 03:53:02;;;;;;;28.98;3.22;;;;;;;10.72;54.97;100019.98;1676185;84;21040;-57
2023/04/20 03:55:32;;;;;;;14.05;2.30;;;;;;;10.70;55.04;100014.71;1714768;83;21051;-58
2023/04/20 03:58:10;;;;;;;9.75;2.12;;;;;;;10.73;55.21;100018.93;1680892;85;21033;-57
2023/04/20 04:00:41;;;;;;;20.68;2.95;;;;;;;10.76;54.86;100017.14;1678400;85;21068;-58
2023/04/20 04:03:10;;;;;;;10.63;2.33;;;;;;;10.74;54.66;100011.03;1714009;84;21003;-58
2023/04/20 04:05:40;;;;;;;14.98;2.50;;;;;;;10.73;54.81;100015.66;1714062;83;21008;-59
2023/04/20 04:08:10;;;;;;;14.50;2.95;;;;;;;10.74;55.04;100014.61;1676740;85;21056;-58
2023/04/20 04:10:40;;;;;;;15.10;2.98;;;;;;;10.78;55.03;100009.56;1680330;83;21036;-58
2023/04/20 04:13:10;;;;;;;15.10;2.50;;;;;;;10.81;54.99;100014.63;1679677;84;21036;-57
2023/04/20 04:15:40;;;;;;;16.97;2.62;;;;;;;10.84;54.84;100018.84;1714205;84;21071;-59
2023/04/20 04:18:11;;;;;;;17.70;2.35;;;;;;;10.85;54.53;100018.63;1714361;84;21082;-58
2023/04/20 04:20:42;;;;;;;12.47;2.45;;;;;;;10.86;54.18;100012.63;1714175;84;22206;-58
2023/04/20 04:23:14;;;;;;;18.82;3.25;;;;;;;10.86;54.35;100016.20;1679389;85;21044;-58
2023/04/20 04:25:48;;;;;;;12.88;2.67;;;;;;;10.87;54.42;100011.05;1684720;85;21063;-57
2023/04/20 04:28:24;;;;;;;10.25;2.30;;;;;;;10.88;54.44;100011.89;1679925;85;21043;-57
2023/04/20 04:31:04;;;;;;;16.80;2.50;;;;;;;10.90;54.67;100013.89;1678310;85;21147;-57
2023/04/20 04:33:35;;;;;;;12.10;2.50;;;;;;;10.91;54.92;100011.47;1679752;85;21072;-57
2023/04/20 04:36:06;;;;;;;20.70;3.58;;;;;;;10.91;55.34;100016.42;1679351;85;21039;-57
2023/04/20 04:38:36;;;;;;;12.37;2.60;;;;;;;10.92;55.46;100020.86;1679533;85;21055;-59
2023/04/20 04:41:06;;;;;;;11.57;2.52;;;;;;;10.88;55.75;100020.95;1714202;84;21003;-58
2023/04/20 04:43:36;;;;;;;12.05;2.47;;;;;;;10.87;55.88;100024.75;1676101;85;21114;-58
2023/04/20 04:46:12;;;;;;;14.35;2.40;;;;;;;10.87;56.37;100028.86;1706635;84;21048;-57
2023/04/20 04:48:41;;;;;;;17.73;2.62;;;;;;;10.87;56.62;100015.69;1680933;83;21036;-57
2023/04/20 04:51:10;;;;;;;27.50;2.75;;;;;;;10.83;56.56;100021.27;1658349;85;21463;-57
2023/04/20 04:53:43;;;;;;;8.60;2.47;;;;;;;10.80;56.76;100031.59;1707277;84;21024;-57
2023/04/20 04:56:12;;;;;;;12.15;2.45;;;;;;;10.78;57.20;100021.89;1707212;84;21060;-58
2023/04/20 04:58:42;;;;;;;19.82;3.05;;;;;;;10.75;57.46;100012.72;1707155;84;21230;-58
2023/04/20 05:01:12;;;;;;;13.18;2.67;;;;;;;10.69;58.32;100019.03;1705588;83;21119;-58
2023/04/20 05:03:41;;;;;;;12.60;2.40;;;;;;;10.66;58.93;100032.63;1702770;84;21558;-57
2023/04/20 05:06:11;;;;;;;12.45;2.45;;;;;;;10.65;59.90;100036.94;1702356;84;21028;-57
2023/04/20 05:08:41;;;;;;;13.05;2.58;;;;;;;10.64;60.44;100039.36;1702774;84;21117;-58
2023/04/20 05:11:10;;;;;;;11.75;3.08;;;;;;;10.59;61.04;100031.76;1678228;85;21460;-57
2023/04/20 05:13:40;;;;;;;13.80;2.92;;;;;;;10.53;62.07;100029.84;1650435;87;21452;-57
2023/04/20 05:16:12;;;;;;;14.18;3.17;;;;;;;10.50;62.76;100022.56;1703021;84;21061;-58
2023/04/20 05:18:41;;;;;;;16.75;2.60;;;;;;;10.45;63.67;100028.14;1673009;85;21456;-58
2023/04/20 05:21:12;;;;;;;11.70;2.70;;;;;;;10.43;64.01;100022.02;1672739;84;21456;-58
2023/04/20 05:23:42;;;;;;;14.05;2.52;;;;;;;10.44;64.49;100022.34;1672835;86;21040;-57
2023/04/20 05:26:12;;;;;;;13.72;2.83;;;;;;;10.41;65.01;100022.75;1672754;86;21012;-58
2023/04/20 05:28:41;;;;;;;11.48;3.10;;;;;;;10.37;65.83;100031.55;1664976;85;21625;-58
2023/04/20 05:31:11;;;;;;;18.05;3.12;;;;;;;10.36;66.29;100048.52;1658029;85;21522;-58
2023/04/20 05:33:41;;;;;;;10.72;2.70;;;;;;;10.34;66.54;100027.34;1704257;83;21534;-57
2023/04/20 05:36:10;;;;;;;12.28;2.90;;;;;;;10.31;67.29;100035.12;1658441;86;21479;-57
2023/04/20 05:38:39;;;;;;;14.05;3.05;;;;;;;10.27;67.59;100031.10;1696983;83;21040;-56
2023/04/20 05:41:09;;;;;;;16.95;3.70;;;;;;;10.26;68.49;100037.09;1701687;84;21103;-58
2023/04/20 05:43:38;;;;;;;20.30;3.58;;;;;;;10.26;69.14;100034.89;1706767;84;21468;-58
2023/04/20 05:46:07;;;;;;;20.55;2.72;;;;;;;10.25;69.40;100041.41;1675241;85;21061;-59
2023/04/20 05:48:37;;;;;;;18.42;3.10;;;;;;;10.21;70.06;100039.61;1670078;83;21475;-58
2023/04/20 05:51:07;;;;;;;13.00;3.25;;;;;;;10.21;70.55;100045.08;1700649;84;21016;-58
2023/04/20 05:53:37;;;;;;;17.70;3.35;;;;;;;10.20;71.07;100043.88;1700860;84;21490;-57
2023/04/20 05:56:08;;;;;;;20.75;3.37;;;;;;;10.20;71.71;100038.41;1700924;84;21103;-58
2023/04/20 05:58:38;;;;;;;16.20;3.30;;;;;;;10.20;72.54;100050.23;1700730;84;21032;-57
2023/04/20 06:01:08;;;;;;;18.35;3.10;;;;;;;10.18;73.12;100041.35;1700842;84;21055;-58
2023/04/20 06:03:38;;;;;;;15.98;3.20;;;;;;;10.12;73.68;100047.12;1701008;84;21139;-58
2023/04/20 06:06:09;;;;;;;20.97;3.10;;;;;;;10.10;73.86;100041.52;1700983;84;21057;-58
2023/04/20 06:08:38;;;;;;;12.53;3.17;;;;;;;10.09;74.19;100043.94;1700667;83;21032;-56
2023/04/20 06:11:08;;;;;;;14.70;2.80;;;;;;;10.08;74.49;100040.88;1700667;84;21518;-58
2023/04/20 06:13:38;;;;;;;15.83;3.45;;;;;;;10.12;74.94;100036.17;1700404;84;21079;-58
2023/04/20 06:16:09;;;;;;;16.48;3.33;;;;;;;10.13;75.36;100032.91;1700807;84;21119;-58
2023/04/20 06:18:38;;;;;;;17.60;3.37;;;;;;;10.12;76.00;100041.64;1700560;84;21477;-58
2023/04/20 06:21:10;;;;;;;16.73;3.40;;;;;;;10.11;76.24;100038.58;1700772;84;21028;-58
2023/04/20 06:23:39;;;;;;;14.87;2.87;;;;;;;10.12;76.40;100039.43;1700726;84;21112;-58
2023/04/20 06:26:09;;;;;;;12.58;3.00;;;;;;;10.13;77.14;100039.75;1700671;84;21083;-57
2023/04/20 06:28:38;;;;;;;20.68;4.12;;;;;;;10.14;77.72;100029.97;1700808;84;21079;-57
2023/04/20 06:31:07;;;;;;;16.25;3.05;;;;;;;10.13;78.19;100038.38;1700838;84;21076;-60
2023/04/20 06:33:36;;;;;;;13.65;3.30;;;;;;;10.11;78.23;100048.69;1700512;84;21067;-58
2023/04/20 06:36:08;;;;;;;14.38;4.25;;;;;;;10.07;78.23;100036.45;1700830;84;21032;-57
2023/04/20 06:38:37;;;;;;;12.88;3.30;;;;;;;10.06;78.40;100036.98;1700562;84;21109;-58
2023/04/20 06:41:06;;;;;;;13.08;2.72;;;;;;;10.08;78.98;100029.94;1700672;84;21083;-57
2023/04/20 06:43:36;;;;;;;20.75;2.98;;;;;;;10.13;80.13;100031.53;1700653;84;21555;-56
2023/04/20 06:46:05;;;;;;;15.13;3.67;;;;;;;10.17;80.12;100021.87;1700609;84;21063;-58
2023/04/20 06:48:34;;;;;;;12.88;2.95;;;;;;;10.23;80.22;100014.77;1700703;83;21079;-57
2023/04/20 06:51:03;;;;;;;16.05;3.90;;;;;;;10.33;80.89;100018.80;1720727;83;21054;-59
2023/04/20 06:53:32;;;;;;;24.37;4.12;;;;;;;10.43;80.96;100000.11;1720458;83;21074;-57
2023/04/20 06:56:01;;;;;;;16.85;3.25;;;;;;;10.56;80.89;99999.30;1720833;83;21027;-57
2023/04/20 06:58:30;;;;;;;19.17;4.10;;;;;;;10.63;80.44;99992.46;1720448;83;21415;-57
2023/04/20 07:00:59;;;;;;;20.37;4.65;;;;;;;10.65;79.74;99987.09;1720989;83;21099;-57
2023/04/20 07:03:28;;;;;;;12.80;2.87;;;;;;;10.69;79.50;99994.37;1720630;83;21039;-57
2023/04/20 07:05:57;;;;;;;10.88;2.87;;;;;;;10.76;79.15;99988.38;1721075;83;21019;-58
2023/04/20 07:08:26;;;;;;;15.15;3.27;;;;;;;10.81;78.95;99995.44;1719171;83;21114;-58
2023/04/20 07:10:55;;;;;;;16.55;4.60;;;;;;;10.85;77.84;99993.97;1721041;83;21056;-59
2023/04/20 07:13:25;;;;;;;14.20;2.72;;;;;;;10.86;77.71;99994.81;1720937;83;21039;-60
2023/04/20 07:15:56;;;;;;;18.77;2.92;;;;;;;10.87;77.12;99989.12;1720894;83;21478;-58
2023/04/20 07:18:26;;;;;;;17.77;2.98;;;;;;;10.85;76.54;99993.97;1721151;83;21071;-57
2023/04/20 07:20:57;;;;;;;15.03;3.00;;;;;;;10.86;76.67;99990.70;1722188;83;21087;-58
2023/04/20 07:23:26;;;;;;;12.10;2.87;;;;;;;10.87;76.29;99984.16;1722599;83;21040;-59
2023/04/20 07:25:54;;;;;;;24.20;3.10;;;;;;;10.88;75.95;99983.11;1722959;83;21040;-58
2023/04/20 07:28:23;;;;;;;13.32;2.62;;;;;;;10.89;75.31;99983.43;1722726;83;21054;-58
2023/04/20 07:30:52;;;;;;;13.75;3.02;;;;;;;10.90;75.20;99983.22;1721256;83;21103;-57
2023/04/20 07:33:22;;;;;;;16.48;3.12;;;;;;;10.91;74.62;99984.91;1721142;83;21062;-57
2023/04/20 07:35:52;;;;;;;17.42;2.58;;;;;;;10.94;74.69;99984.48;1721260;83;21297;-56
2023/04/20 07:38:21;;;;;;;16.42;3.25;;;;;;;10.96;74.62;99976.89;1721290;83;21060;-60
2023/04/20 07:40:50;;;;;;;17.27;3.08;;;;;;;10.95;74.28;99983.43;1720815;83;21062;-57
2023/04/20 07:43:19;;;;;;;17.15;2.80;;;;;;;10.96;73.37;99979.63;1720785;83;21036;-59
2023/04/20 07:45:48;;;;;;;13.53;2.60;;;;;;;10.97;73.48;99981.32;1720585;83;21042;-57
2023/04/20 07:48:19;;;;;;;16.52;3.58;;;;;;;10.95;72.95;99978.47;1720974;83;21063;-58
2023/04/20 07:50:48;;;;;;;12.93;2.92;;;;;;;10.91;73.04;99978.05;1688964;83;21051;-57
2023/04/20 07:53:17;;;;;;;16.17;2.77;;;;;;;10.91;73.19;99975.31;1678225;85;21095;-58
2023/04/20 07:55:47;;;;;;;18.90;3.02;;;;;;;10.92;73.63;99985.75;1683446;84;20996;-57
2023/04/20 07:58:17;;;;;;;14.98;3.27;;;;;;;10.91;73.39;99984.91;1685808;85;21088;-57
2023/04/20 08:00:46;;;;;;;21.00;3.60;;;;;;;10.90;73.33;100007.89;1681326;84;21140;-58
2023/04/20 08:03:15;;;;;;;20.75;3.10;;;;;;;10.88;72.34;99987.22;1674484;84;21091;-58
2023/04/20 08:05:45;;;;;;;16.12;3.42;;;;;;;10.87;72.57;99985.01;1690060;83;21070;-57
2023/04/20 08:08:13;;;;;;;18.95;4.75;;;;;;;10.89;72.44;99995.23;1686155;83;21026;-57
2023/04/20 08:10:43;;;;;;;14.10;2.60;;;;;;;10.89;72.30;99994.39;1700202;83;21087;-57
2023/04/20 08:13:13;;;;;;;11.85;2.72;;;;;;;10.90;71.97;99987.86;1718072;83;21063;-60
2023/04/20 08:15:42;;;;;;;19.15;3.02;;;;;;;10.89;71.67;99976.58;1718298;82;21128;-57
2023/04/20 08:18:11;;;;;;;15.72;2.98;;;;;;;10.86;71.51;99983.84;1717032;83;21055;-58
2023/04/20 08:20:40;;;;;;;19.07;3.20;;;;;;;10.85;71.73;99980.80;1683689;84;21082;-58
2023/04/20 08:23:09;;;;;;;12.60;3.17;;;;;;;10.84;71.71;99997.77;1683827;85;21063;-57
2023/04/20 08:25:39;;;;;;;16.23;2.50;;;;;;;10.83;71.05;99997.44;1684068;85;21472;-57
2023/04/20 08:28:08;;;;;;;11.75;2.98;;;;;;;10.79;71.25;99990.17;1684049;85;21039;-58
2023/04/20 08:30:40;;;;;;;20.43;3.60;;;;;;;10.77;72.12;100001.02;1682635;84;21008;-58
2023/04/20 08:33:08;;;;;;;20.20;3.00;;;;;;;10.73;72.43;99986.05;1683964;85;21039;-58
2023/04/20 08:35:38;;;;;;;12.13;3.00;;;;;;;10.70;72.58;99992.79;1689689;83;21063;-58
2023/04/20 08:38:06;;;;;;;18.45;2.92;;;;;;;10.69;72.92;99988.36;1708305;84;21049;-57
2023/04/20 08:40:35;;;;;;;12.35;3.35;;;;;;;10.65;73.50;99998.58;1707966;83;21483;-59
2023/04/20 08:43:05;;;;;;;13.03;3.35;;;;;;;10.63;73.69;99984.24;1676206;83;21085;-57
2023/04/20 08:45:34;;;;;;;18.92;3.47;;;;;;;10.59;74.65;99987.92;1678796;85;21055;-57
2023/04/20 08:48:05;;;;;;;13.55;3.08;;;;;;;10.57;75.51;99995.51;1678399;85;21524;-59
2023/04/20 08:50:35;;;;;;;17.77;2.95;;;;;;;10.54;76.25;99998.66;1681294;83;21033;-57
2023/04/20 08:53:04;;;;;;;14.33;2.50;;;;;;;10.47;76.94;100002.75;1682749;84;21041;-59
2023/04/20 08:55:33;;;;;;;16.05;3.37;;;;;;;10.38;78.21;100003.12;1682768;84;21061;-60
2023/04/20 08:58:02;;;;;;;17.27;3.35;;;;;;;10.29;78.96;100000.25;1682792;85;21053;-59
2023/04/20 09:00:31;;;;;;;14.50;3.75;;;;;;;10.23;80.08;99996.44;1682290;83;21084;-58
2023/04/20 09:03:00;;;;;;;21.00;3.17;;;;;;;10.18;81.16;100009.34;1687973;84;21067;-61
2023/04/20 09:05:32;;;;;;;13.83;2.98;;;;;;;10.14;81.56;100023.13;1698487;84;21028;-58
2023/04/20 09:08:01;;;;;;;12.70;3.55;;;;;;;10.11;82.20;100014.47;1698483;84;21095;-59
2023/04/20 09:10:41;;;;;;;20.30;3.22;;;;;;;10.08;83.26;100025.30;1691560;84;21026;-58
2023/04/20 09:13:22;;;;;;;18.40;3.33;;;;;;;10.03;83.88;100002.33;1684301;84;21070;-60
2023/04/20 09:15:52;;;;;;;22.40;3.33;;;;;;;9.96;84.92;100013.25;1684576;84;21027;-59
2023/04/20 09:18:23;;;;;;;17.48;3.50;;;;;;;9.91;85.75;100012.17;1684561;85;21114;-58
2023/04/20 09:20:52;;;;;;;18.75;3.42;;;;;;;9.88;86.60;100015.31;1684545;85;21070;-58
2023/04/20 09:23:20;;;;;;;13.30;3.00;;;;;;;9.87;87.19;100012.25;1684313;85;21038;-59
2023/04/20 09:25:52;;;;;;;13.45;3.00;;;;;;;9.88;87.78;100009.31;1684527;85;21086;-58
2023/04/20 09:28:21;;;;;;;19.92;3.20;;;;;;;9.85;88.30;100008.35;1684285;85;22066;-59
2023/04/20 09:30:50;;;;;;;13.18;3.02;;;;;;;9.81;88.64;100009.28;1684557;85;21010;-58
2023/04/20 09:33:19;;;;;;;16.23;3.12;;;;;;;9.80;89.00;100019.06;1684353;85;21070;-59
2023/04/20 09:35:48;;;;;;;13.88;3.87;;;;;;;9.79;89.16;100005.06;1664718;85;21043;-58
2023/04/20 09:38:21;;;;;;;16.05;3.05;;;;;;;9.79;89.54;100005.91;1695584;84;21517;-57
2023/04/20 09:40:52;;;;;;;14.47;3.40;;;;;;;9.79;89.71;99999.06;1679788;84;21077;-58
2023/04/20 09:43:23;;;;;;;16.25;3.42;;;;;;;9.79;90.08;100007.27;1698359;84;21520;-59
2023/04/20 09:45:53;;;;;;;16.93;3.17;;;;;;;9.82;90.45;100014.23;1698174;83;21177;-60
2023/04/20 09:48:22;;;;;;;14.53;3.35;;;;;;;9.85;90.60;100003.72;1697857;84;21101;-58
2023/04/20 09:50:51;;;;;;;13.43;2.62;;;;;;;9.89;90.67;100017.00;1723793;81;21071;-59
2023/04/20 09:53:20;;;;;;;12.28;2.62;;;;;;;9.91;90.80;100009.43;1702872;83;21093;-62
2023/04/20 09:55:50;;;;;;;9.60;2.47;;;;;;;9.91;90.58;100007.54;1702786;83;21034;-59
2023/04/20 09:58:20;;;;;;;16.90;2.95;;;;;;;9.90;89.77;100000.91;1703078;83;21000;-60
2023/04/20 10:00:49;;;;;;;11.70;2.72;;;;;;;9.89;89.41;100004.69;1702693;84;21072;-58
2023/04/20 10:03:19;;;;;;;13.62;2.98;;;;;;;9.88;88.90;99997.53;1702610;83;21065;-57
2023/04/20 10:05:48;;;;;;;15.63;3.20;;;;;;;9.91;89.01;99998.48;1702748;84;21416;-59
2023/04/20 10:08:19;;;;;;;18.15;2.65;;;;;;;9.98;89.00;100002.94;1702867;84;21705;-58
2023/04/20 10:10:50;;;;;;;14.93;3.10;;;;;;;10.02;88.65;99995.17;1691768;84;21070;-59
2023/04/20 10:13:20;;;;;;;18.40;3.40;;;;;;;10.08;88.62;99996.56;1683379;85;21032;-58
2023/04/20 10:15:50;;;;;;;16.62;3.37;;;;;;;10.15;88.20;99994.70;1683830;85;21082;-58
2023/04/20 10:18:23;;;;;;;20.23;2.95;;;;;;;10.20;87.57;100002.33;1683550;85;21076;-57
2023/04/20 10:21:04;;;;;;;16.67;2.70;;;;;;;10.25;86.71;100003.92;1683296;84;21039;-58
2023/04/20 10:23:34;;;;;;;11.50;2.58;;;;;;;10.29;86.27;99994.25;1685461;84;21093;-59
2023/04/20 10:26:04;;;;;;;17.52;2.67;;;;;;;10.32;85.54;99997.94;1703076;84;21057;-60
2023/04/20 10:28:40;;;;;;;22.13;2.98;;;;;;;10.36;85.07;100004.70;1691270;84;21027;-58
2023/04/20 10:31:14;;;;;;;16.40;2.70;;;;;;;10.40;85.10;100000.53;1698154;84;21091;-58
2023/04/20 10:33:56;;;;;;;14.73;2.87;;;;;;;10.40;84.53;100010.61;1699010;84;22078;-60
2023/04/20 10:36:28;;;;;;;15.70;3.30;;;;;;;10.43;84.61;100006.12;1700273;84;21184;-57
2023/04/20 10:38:57;;;;;;;14.90;3.00;;;;;;;10.47;84.96;100008.23;1699787;84;21079;-59
2023/04/20 10:41:29;;;;;;;15.45;3.05;;;;;;;10.51;84.75;100007.83;1699889;84;21126;-59
2023/04/20 10:44:09;;;;;;;14.73;3.05;;;;;;;10.51;83.92;100011.93;1699273;84;21095;-58
2023/04/20 10:46:38;;;;;;;18.65;3.27;;;;;;;10.51;83.75;99999.60;1698363;84;21067;-59
2023/04/20 10:49:07;;;;;;;15.85;2.50;;;;;;;10.53;83.72;100005.72;1698389;84;21127;-58
2023/04/20 10:51:36;;;;;;;11.48;2.35;;;;;;;10.54;83.52;100012.89;1692792;84;21083;-58
2023/04/20 10:54:08;;;;;;;19.92;3.12;;;;;;;10.56;83.21;100012.16;1718660;83;21063;-58
2023/04/20 10:56:45;;;;;;;16.07;2.67;;;;;;;10.57;82.82;100019.32;1718413;83;21114;-59
2023/04/20 10:59:15;;;;;;;;;;;;;;;10.55;82.46;100024.16;1721168;83;21067;-59
2023/04/20 11:01:45;;;;;;;14.73;2.72;;;;;;;10.56;82.40;100023.95;1718320;83;20275;-58
2023/04/20 11:04:14;;;;;;;13.78;2.70;;;;;;;10.56;82.05;100007.52;1716173;83;21030;-60
2023/04/20 11:06:47;;;;;;;13.65;2.70;;;;;;;10.55;82.06;100013.20;1709587;84;21013;-59
2023/04/20 11:09:19;;;;;;;12.75;2.55;;;;;;;10.58;82.58;100025.12;1710078;84;21026;-59
2023/04/20 11:12:02;;;;;;;11.53;2.65;;;;;;;10.57;82.28;100020.16;1689345;85;21106;-61
2023/04/20 11:14:37;;;;;;;11.25;2.30;;;;;;;10.60;82.30;100027.13;1689419;85;21505;-58
2023/04/20 11:17:06;;;;;;;15.98;3.25;;;;;;;10.60;82.21;100021.64;1689646;85;21073;-59
2023/04/20 11:19:36;;;;;;;14.98;2.77;;;;;;;10.60;82.29;100033.45;1689405;85;21054;-59
2023/04/20 11:22:05;;;;;;;12.68;3.27;;;;;;;10.59;82.77;100031.76;1689581;85;21122;-58
2023/04/20 11:24:36;;;;;;;14.38;2.52;;;;;;;10.57;83.24;100034.39;1689730;85;21532;-59
2023/04/20 11:27:05;;;;;;;14.93;2.80;;;;;;;10.56;83.54;100034.06;1689750;85;21039;-58
2023/04/20 11:29:37;;;;;;;11.00;2.75;;;;;;;10.54;83.89;100036.17;1689935;85;21058;-58
2023/04/20 11:32:09;;;;;;;20.37;3.52;;;;;;;10.54;84.29;100039.75;1714095;83;20992;-59